Time;durP1;ratioP1;P1;durP2;ratioP2;P2;SDS_P1;SDS_P2;PMS_P1;PMS_P2;Temp;Humidity;BMP_temperature;BMP_pressure;BME280_temperature;BME280_humidity;BME280_pressure;Samples;Min_cycle;Max_cycle;Signal;HPM_P1;HPM_P2
2022/02/24 00:00:30;;;;;;;18.17;13.27;;;7.70;67.00;;;;;;5095257;28;20032;-67
2022/02/24 00:02:56;;;;;;;30.33;16.43;;;7.70;67.10;;;;;;5095084;28;20404;-67
2022/02/24 00:05:22;;;;;;;29.30;17.00;;;7.60;66.90;;;;;;5094862;28;20028;-67
2022/02/24 00:07:48;;;;;;;25.27;16.87;;;7.60;67.00;;;;;;5095176;28;20056;-68
2022/02/24 00:10:14;;;;;;;39.73;18.53;;;7.60;66.90;;;;;;5094717;28;20048;-67
2022/02/24 00:12:41;;;;;;;33.73;19.13;;;7.60;67.00;;;;;;5094768;28;20044;-67
2022/02/24 00:15:07;;;;;;;28.00;17.90;;;7.50;66.80;;;;;;5094660;28;20504;-68
2022/02/24 00:17:34;;;;;;;33.50;17.97;;;7.50;67.10;;;;;;5094722;28;20040;-71
2022/02/24 00:20:00;;;;;;;28.37;17.03;;;7.40;67.00;;;;;;5094876;28;20031;-68
2022/02/24 00:22:26;;;;;;;33.50;17.63;;;7.40;67.10;;;;;;5094626;28;20047;-67
2022/02/24 00:24:52;;;;;;;36.37;17.57;;;7.50;67.10;;;;;;5095025;28;20040;-68
2022/02/24 00:27:18;;;;;;;31.10;16.67;;;7.40;66.90;;;;;;5094370;28;20081;-68
2022/02/24 00:29:44;;;;;;;28.87;17.43;;;7.40;66.80;;;;;;5093894;28;20070;-67
2022/02/24 00:32:10;;;;;;;21.27;15.30;;;7.40;66.80;;;;;;5094162;28;20048;-67
2022/02/24 00:34:36;;;;;;;23.33;15.50;;;7.30;66.70;;;;;;5094413;28;20058;-71
2022/02/24 00:37:03;;;;;;;26.50;15.57;;;7.30;66.90;;;;;;5094413;28;20500;-68
2022/02/24 00:39:29;;;;;;;22.43;14.37;;;7.20;67.10;;;;;;5094514;28;20032;-67
2022/02/24 00:41:55;;;;;;;23.83;15.60;;;7.20;67.30;;;;;;5094306;28;20477;-68
2022/02/24 00:44:20;;;;;;;29.30;15.30;;;7.20;67.50;;;;;;5094291;28;20036;-67
2022/02/24 00:46:46;;;;;;;25.63;15.90;;;7.20;67.40;;;;;;5094166;28;20064;-67
2022/02/24 00:49:12;;;;;;;23.80;15.67;;;7.10;67.60;;;;;;5094031;28;20043;-68
2022/02/24 00:51:38;;;;;;;24.50;15.67;;;7.10;67.90;;;;;;5093997;28;20147;-67
2022/02/24 00:54:04;;;;;;;34.23;16.23;;;7.10;67.90;;;;;;5094301;28;20036;-67
2022/02/24 00:56:30;;;;;;;24.07;14.50;;;7.00;68.30;;;;;;5094258;28;20105;-67
2022/02/24 00:58:56;;;;;;;21.10;13.90;;;7.00;68.90;;;;;;5094248;28;20082;-67
2022/02/24 01:01:22;;;;;;;24.47;14.80;;;6.90;69.00;;;;;;5093632;28;20431;-68
2022/02/24 01:03:48;;;;;;;21.43;13.73;;;6.80;69.30;;;;;;5094001;28;20055;-67
2022/02/24 01:06:14;;;;;;;23.77;15.03;;;6.80;69.50;;;;;;5094158;28;20067;-67
2022/02/24 01:08:40;;;;;;;22.97;13.70;;;6.70;69.50;;;;;;5094111;28;20388;-67
2022/02/24 01:11:05;;;;;;;22.87;13.63;;;6.60;70.20;;;;;;5093574;28;20060;-67
2022/02/24 01:13:31;;;;;;;22.30;14.03;;;6.60;70.20;;;;;;5093705;28;20032;-68
2022/02/24 01:15:57;;;;;;;20.67;13.13;;;6.50;70.00;;;;;;5093555;28;20134;-68
2022/02/24 01:18:23;;;;;;;21.30;13.60;;;6.50;70.10;;;;;;5093557;28;20032;-68
2022/02/24 01:20:48;;;;;;;19.60;12.90;;;6.50;70.40;;;;;;5093685;28;20032;-68
2022/02/24 01:23:14;;;;;;;22.53;14.03;;;6.50;70.80;;;;;;5093801;28;20473;-67
2022/02/24 01:25:40;;;;;;;21.47;13.37;;;6.60;70.40;;;;;;5093128;28;20028;-68
2022/02/24 01:28:06;;;;;;;23.10;14.17;;;6.60;69.70;;;;;;5093598;28;20528;-68
2022/02/24 01:30:32;;;;;;;26.10;14.27;;;6.70;69.60;;;;;;5093562;28;20047;-70
2022/02/24 01:32:58;;;;;;;22.10;14.17;;;6.70;69.30;;;;;;5093448;28;20032;-68
2022/02/24 01:35:24;;;;;;;22.53;14.13;;;6.70;69.00;;;;;;5093438;28;20032;-68
2022/02/24 01:37:50;;;;;;;25.77;16.00;;;6.70;69.10;;;;;;5093092;28;20032;-68
2022/02/24 01:40:17;;;;;;;35.90;21.93;;;6.60;69.60;;;;;;5093178;28;20092;-68
2022/02/24 01:42:43;;;;;;;34.20;21.20;;;6.70;69.30;;;;;;5092355;28;20477;-68
2022/02/24 01:45:10;;;;;;;31.70;18.50;;;6.70;69.10;;;;;;5093373;28;20047;-70
2022/02/24 01:47:36;;;;;;;36.80;20.53;;;6.60;69.00;;;;;;5093039;28;20032;-71
2022/02/24 01:50:03;;;;;;;36.53;19.43;;;6.70;68.80;;;;;;5093343;28;20610;-71
2022/02/24 01:52:29;;;;;;;29.43;17.97;;;6.60;68.60;;;;;;5092628;28;20481;-68
2022/02/24 01:54:55;;;;;;;29.20;18.23;;;6.60;68.50;;;;;;5093074;28;20503;-68
2022/02/24 01:57:22;;;;;;;27.17;17.67;;;6.60;68.80;;;;;;5091169;28;20032;-68
2022/02/24 01:59:48;;;;;;;27.87;17.07;;;6.50;68.90;;;;;;5089455;28;20384;-68
2022/02/24 02:02:14;;;;;;;26.43;16.57;;;6.40;68.70;;;;;;5090413;28;20040;-68
2022/02/24 02:04:40;;;;;;;30.77;16.67;;;6.50;68.70;;;;;;5091284;28;20473;-68
2022/02/24 02:07:06;;;;;;;31.67;17.57;;;6.40;68.70;;;;;;5092612;28;20032;-68
2022/02/24 02:09:32;;;;;;;24.93;16.93;;;6.40;68.60;;;;;;5092612;28;20483;-68
2022/02/24 02:11:58;;;;;;;30.37;16.20;;;6.40;68.80;;;;;;5092685;28;20063;-68
2022/02/24 02:14:24;;;;;;;35.57;18.30;;;6.40;69.00;;;;;;5092739;28;20481;-68
2022/02/24 02:16:51;;;;;;;28.87;18.13;;;6.30;68.70;;;;;;5092674;28;20032;-68
2022/02/24 02:19:17;;;;;;;31.50;17.63;;;6.30;68.70;;;;;;5092695;28;20142;-68
2022/02/24 02:21:44;;;;;;;28.47;16.83;;;6.20;68.80;;;;;;5092240;28;20039;-68
2022/02/24 02:24:10;;;;;;;27.27;16.00;;;6.10;69.30;;;;;;5092747;28;20032;-68
2022/02/24 02:26:36;;;;;;;24.87;15.57;;;6.00;69.30;;;;;;5092853;28;20039;-68
2022/02/24 02:29:04;;;;;;;24.17;14.50;;;6.00;69.40;;;;;;5092697;28;20032;-68
2022/02/24 02:31:30;;;;;;;19.13;12.37;;;5.90;69.70;;;;;;5092537;28;20396;-68
2022/02/24 02:34:04;;;;;;;21.20;13.40;;;5.90;69.60;;;;;;5092695;28;20074;-68
2022/02/24 02:36:30;;;;;;;18.97;12.60;;;5.90;69.60;;;;;;5092665;28;20111;-68
2022/02/24 02:38:56;;;;;;;19.53;12.87;;;5.90;69.50;;;;;;5092687;28;20047;-70
2022/02/24 02:41:22;;;;;;;19.93;13.57;;;5.90;69.30;;;;;;5092630;28;20040;-68
2022/02/24 02:43:48;;;;;;;19.20;12.70;;;5.90;69.30;;;;;;5092610;28;20045;-68
2022/02/24 02:46:14;;;;;;;22.40;13.10;;;5.90;69.10;;;;;;5092631;28;20032;-68
2022/02/24 02:48:39;;;;;;;20.47;12.87;;;6.00;69.20;;;;;;5092561;28;20069;-70
2022/02/24 02:51:07;;;;;;;20.00;12.77;;;5.90;69.20;;;;;;5091977;28;20084;-71
2022/02/24 02:53:32;;;;;;;22.30;12.53;;;5.90;69.30;;;;;;5094672;28;20035;-68
2022/02/24 02:55:58;;;;;;;21.57;13.13;;;5.90;69.10;;;;;;5096010;28;20032;-68
2022/02/24 02:58:24;;;;;;;21.17;14.77;;;6.00;69.10;;;;;;5095535;28;20038;-68
2022/02/24 03:00:49;;;;;;;20.80;13.77;;;5.90;69.00;;;;;;5096152;28;20443;-68
2022/02/24 03:03:15;;;;;;;23.33;13.47;;;5.90;69.30;;;;;;5096351;28;20066;-68
2022/02/24 03:05:41;;;;;;;19.80;12.37;;;5.80;69.60;;;;;;5095963;28;20024;-68
2022/02/24 03:08:07;;;;;;;20.90;12.30;;;5.70;70.30;;;;;;5096103;28;20036;-68
2022/02/24 03:10:33;;;;;;;22.83;13.33;;;5.70;70.40;;;;;;5095491;28;20040;-68
2022/02/24 03:12:59;;;;;;;27.57;17.57;;;5.70;70.80;;;;;;5095958;28;20042;-68
2022/02/24 03:15:25;;;;;;;24.00;15.43;;;5.70;70.50;;;;;;5095738;28;20092;-71
2022/02/24 03:17:51;;;;;;;23.60;14.30;;;5.70;70.20;;;;;;5095975;28;20043;-70
2022/02/24 03:20:16;;;;;;;21.67;14.77;;;5.70;70.30;;;;;;5095508;28;20415;-69
2022/02/24 03:22:43;;;;;;;23.10;13.33;;;5.80;70.60;;;;;;5095729;28;20028;-68
2022/02/24 03:25:10;;;;;;;31.13;15.13;;;5.70;70.90;;;;;;5095580;28;20111;-68
2022/02/24 03:27:36;;;;;;;23.47;14.40;;;5.70;70.70;;;;;;5095844;28;20040;-71
2022/02/24 03:30:04;;;;;;;20.77;13.73;;;5.70;70.60;;;;;;5095632;28;20369;-68
2022/02/24 03:32:30;;;;;;;26.60;14.23;;;5.60;70.80;;;;;;5095257;28;20040;-68
2022/02/24 03:34:55;;;;;;;24.30;14.53;;;5.50;71.10;;;;;;5095315;28;20032;-68
2022/02/24 03:37:21;;;;;;;23.73;13.70;;;5.50;71.20;;;;;;5095200;28;20042;-68
2022/02/24 03:39:48;;;;;;;25.80;13.40;;;5.50;71.10;;;;;;5095227;28;20119;-68
2022/02/24 03:42:14;;;;;;;26.47;13.30;;;5.60;71.00;;;;;;5095309;28;20050;-68
2022/02/24 03:44:40;;;;;;;24.77;12.60;;;5.60;70.90;;;;;;5095282;28;20489;-68
2022/02/24 03:47:06;;;;;;;27.20;13.83;;;5.60;71.20;;;;;;5094809;28;20021;-71
2022/02/24 03:49:31;;;;;;;24.13;13.03;;;5.40;71.40;;;;;;5095119;28;20043;-69
2022/02/24 03:51:57;;;;;;;22.87;13.00;;;5.30;72.20;;;;;;5095151;28;20152;-68
2022/02/24 03:54:23;;;;;;;25.63;12.87;;;5.20;72.70;;;;;;5095241;28;20032;-68
2022/02/24 03:56:48;;;;;;;21.53;12.97;;;5.20;72.60;;;;;;5095175;28;20093;-67
2022/02/24 03:59:14;;;;;;;18.33;11.27;;;5.30;72.50;;;;;;5095068;28;20108;-68
2022/02/24 04:01:40;;;;;;;20.47;11.43;;;5.30;72.90;;;;;;5095065;28;20028;-68
2022/02/24 04:04:05;;;;;;;17.33;11.43;;;5.30;72.80;;;;;;5094085;28;20043;-68
2022/02/24 04:06:31;;;;;;;16.63;11.47;;;5.20;72.90;;;;;;5094775;28;20551;-68
2022/02/24 04:08:57;;;;;;;16.07;10.03;;;5.20;72.90;;;;;;5094703;28;20391;-71
2022/02/24 04:11:22;;;;;;;16.23;10.10;;;5.30;72.90;;;;;;5094315;28;20131;-71
2022/02/24 04:13:48;;;;;;;27.77;11.10;;;5.40;72.50;;;;;;5094531;28;20036;-68
2022/02/24 04:16:14;;;;;;;18.43;10.77;;;5.40;72.10;;;;;;5094948;28;20044;-68
2022/02/24 04:18:40;;;;;;;19.97;10.33;;;5.30;72.40;;;;;;5094843;28;20042;-68
2022/02/24 04:21:06;;;;;;;20.90;10.67;;;5.30;72.60;;;;;;5094532;28;20040;-68
2022/02/24 04:23:31;;;;;;;16.30;9.90;;;5.20;72.70;;;;;;5094641;28;20054;-68
2022/02/24 04:25:57;;;;;;;16.37;9.93;;;5.10;72.70;;;;;;5094233;28;20028;-68
2022/02/24 04:28:23;;;;;;;19.57;10.07;;;5.00;73.00;;;;;;5094628;28;20036;-68
2022/02/24 04:30:49;;;;;;;16.67;9.70;;;5.00;73.70;;;;;;5094347;28;20032;-68
2022/02/24 04:33:14;;;;;;;17.57;9.97;;;4.90;74.40;;;;;;5094340;28;20040;-68
2022/02/24 04:35:41;;;;;;;14.70;9.30;;;4.90;74.50;;;;;;5094184;28;20089;-69
2022/02/24 04:38:06;;;;;;;18.47;10.30;;;5.00;74.20;;;;;;5094165;28;20071;-70
2022/02/24 04:40:32;;;;;;;18.03;9.27;;;5.00;73.60;;;;;;5094458;28;20067;-68
2022/02/24 04:42:58;;;;;;;21.87;10.20;;;5.00;74.00;;;;;;5094265;28;20032;-68
2022/02/24 04:45:23;;;;;;;15.57;9.37;;;4.90;73.80;;;;;;5093943;28;20043;-68
2022/02/24 04:47:49;;;;;;;15.23;9.20;;;5.00;73.60;;;;;;5094186;28;20028;-68
2022/02/24 04:50:15;;;;;;;14.70;8.53;;;5.00;73.00;;;;;;5094010;28;20057;-68
2022/02/24 04:52:41;;;;;;;27.23;9.10;;;5.10;72.80;;;;;;5093958;28;20047;-68
2022/02/24 04:55:09;;;;;;;24.73;9.20;;;5.10;72.30;;;;;;5093816;28;20043;-68
2022/02/24 04:57:35;;;;;;;20.10;9.53;;;5.10;72.00;;;;;;5094294;28;20120;-68
2022/02/24 05:00:01;;;;;;;20.57;8.87;;;5.10;72.40;;;;;;5093847;28;20056;-68
2022/02/24 05:02:26;;;;;;;18.53;9.30;;;5.10;71.50;;;;;;5093857;28;20032;-68
2022/02/24 05:04:53;;;;;;;16.60;8.73;;;5.10;71.50;;;;;;5093906;28;20035;-69
2022/02/24 05:07:19;;;;;;;13.90;8.97;;;5.00;71.40;;;;;;5093626;28;20040;-68
2022/02/24 05:09:44;;;;;;;16.27;9.37;;;5.10;71.30;;;;;;5093778;28;20024;-68
2022/02/24 05:12:10;;;;;;;16.63;9.30;;;5.00;71.10;;;;;;5093832;28;20084;-68
2022/02/24 05:14:36;;;;;;;16.53;9.47;;;4.90;71.00;;;;;;5093887;28;20067;-67
2022/02/24 05:17:01;;;;;;;17.57;8.90;;;4.90;71.30;;;;;;5093363;28;20025;-68
2022/02/24 05:19:27;;;;;;;14.63;9.23;;;4.90;71.60;;;;;;5093431;28;20032;-68
2022/02/24 05:21:53;;;;;;;19.20;9.20;;;4.80;71.60;;;;;;5093650;28;20059;-67
2022/02/24 05:24:18;;;;;;;17.43;9.30;;;4.80;71.70;;;;;;5093854;28;20039;-68
2022/02/24 05:26:44;;;;;;;15.23;8.70;;;4.80;71.90;;;;;;5093574;28;20039;-68
2022/02/24 05:29:10;;;;;;;17.00;9.23;;;4.80;72.20;;;;;;5093295;28;20028;-68
2022/02/24 05:31:36;;;;;;;12.90;8.83;;;4.80;72.50;;;;;;5093253;28;20040;-68
2022/02/24 05:34:02;;;;;;;25.57;9.27;;;4.70;72.80;;;;;;5093868;28;20032;-68
2022/02/24 05:36:28;;;;;;;18.23;9.10;;;4.70;73.00;;;;;;5093365;28;20473;-71
2022/02/24 05:38:54;;;;;;;16.23;8.60;;;4.80;72.90;;;;;;5093316;28;20043;-71
2022/02/24 05:41:21;;;;;;;18.67;9.47;;;4.80;72.90;;;;;;5093563;28;20047;-71
2022/02/24 05:43:50;;;;;;;16.07;9.53;;;4.80;73.20;;;;;;5093357;28;20438;-68
2022/02/24 05:46:16;;;;;;;16.13;9.40;;;4.80;73.00;;;;;;5093524;28;20024;-69
2022/02/24 05:48:41;;;;;;;21.97;9.37;;;4.80;72.90;;;;;;5093158;28;20443;-68
2022/02/24 05:51:07;;;;;;;22.47;8.50;;;4.90;73.00;;;;;;5093036;28;20036;-68
2022/02/24 05:53:33;;;;;;;21.27;9.53;;;4.90;73.20;;;;;;5093178;28;20532;-68
2022/02/24 05:55:58;;;;;;;16.40;8.80;;;4.90;73.20;;;;;;5093297;28;20127;-68
2022/02/24 05:58:24;;;;;;;16.60;8.80;;;4.90;73.00;;;;;;5093168;28;20054;-68
2022/02/24 06:00:50;;;;;;;14.93;8.23;;;4.90;72.90;;;;;;5093321;28;20074;-68
2022/02/24 06:03:15;;;;;;;20.47;8.70;;;4.90;72.70;;;;;;5093154;28;20039;-68
2022/02/24 06:05:41;;;;;;;14.70;8.53;;;5.00;72.70;;;;;;5093088;28;20469;-68
2022/02/24 06:08:07;;;;;;;15.87;7.80;;;4.90;72.90;;;;;;5093190;28;20028;-68
2022/02/24 06:10:33;;;;;;;15.03;8.40;;;4.90;73.20;;;;;;5093055;28;20056;-70
2022/02/24 06:12:58;;;;;;;13.83;7.13;;;4.80;73.80;;;;;;5092926;28;20093;-68
2022/02/24 06:15:25;;;;;;;13.73;7.37;;;4.80;73.80;;;;;;5093038;28;20492;-68
2022/02/24 06:17:51;;;;;;;13.30;7.20;;;4.80;74.00;;;;;;5092952;28;20036;-69
2022/02/24 06:20:16;;;;;;;12.23;7.97;;;4.80;73.80;;;;;;5092868;28;20111;-68
2022/02/24 06:22:42;;;;;;;14.17;7.53;;;4.90;74.10;;;;;;5093057;28;20081;-68
2022/02/24 06:25:08;;;;;;;12.63;7.70;;;4.80;74.90;;;;;;5092914;28;20028;-68
2022/02/24 06:27:34;;;;;;;10.20;7.13;;;4.80;75.70;;;;;;5093620;28;20028;-68
2022/02/24 06:30:01;;;;;;;15.37;7.50;;;4.80;75.60;;;;;;5096724;28;20376;-67
2022/02/24 06:32:27;;;;;;;15.63;8.30;;;4.90;75.10;;;;;;5096660;28;20055;-67
2022/02/24 06:34:55;;;;;;;12.73;7.20;;;4.90;74.80;;;;;;5097129;28;20028;-68
2022/02/24 06:37:22;;;;;;;15.80;6.90;;;5.00;74.40;;;;;;5096826;28;20040;-68
2022/02/24 06:39:47;;;;;;;14.20;6.53;;;5.00;74.40;;;;;;5096411;28;20379;-68
2022/02/24 06:42:13;;;;;;;15.40;7.43;;;5.10;74.20;;;;;;5096856;28;20032;-67
2022/02/24 06:44:39;;;;;;;9.77;6.53;;;5.10;74.20;;;;;;5096928;28;20036;-68
2022/02/24 06:47:05;;;;;;;15.07;7.10;;;5.20;74.00;;;;;;5096769;28;20040;-68
2022/02/24 06:49:31;;;;;;;10.27;6.50;;;5.20;73.90;;;;;;5078286;28;20430;-67
2022/02/24 06:51:57;;;;;;;17.50;6.50;;;5.30;73.80;;;;;;5096266;28;20109;-68
2022/02/24 06:54:24;;;;;;;14.90;7.10;;;5.40;73.90;;;;;;5096387;28;20030;-68
2022/02/24 06:56:50;;;;;;;14.13;6.97;;;5.40;73.80;;;;;;5096182;28;20020;-68
2022/02/24 06:59:16;;;;;;;22.20;7.40;;;5.40;73.90;;;;;;5096270;28;20043;-68
2022/02/24 07:01:42;;;;;;;11.07;6.17;;;5.50;74.00;;;;;;5096252;28;20389;-68
2022/02/24 07:04:08;;;;;;;17.67;6.90;;;5.50;75.60;;;;;;5096194;28;20392;-71
2022/02/24 07:06:34;;;;;;;16.80;6.73;;;5.50;75.00;;;;;;5096099;28;20036;-71
2022/02/24 07:09:00;;;;;;;14.40;8.10;;;5.50;75.50;;;;;;5095972;28;20043;-68
2022/02/24 07:11:26;;;;;;;14.83;8.37;;;5.60;74.80;;;;;;5095533;28;20052;-68
2022/02/24 07:13:51;;;;;;;20.70;9.87;;;5.70;74.20;;;;;;5096051;28;20389;-68
2022/02/24 07:16:19;;;;;;;23.13;11.93;;;5.80;74.60;;;;;;5096246;28;20036;-71
2022/02/24 07:18:45;;;;;;;29.37;12.43;;;5.90;74.30;;;;;;5095985;28;20036;-68
2022/02/24 07:21:11;;;;;;;25.03;11.80;;;5.90;74.10;;;;;;5095840;28;20090;-66
2022/02/24 07:23:37;;;;;;;22.57;13.67;;;6.00;74.90;;;;;;5095901;28;20033;-68
2022/02/24 07:26:03;;;;;;;26.13;14.87;;;6.00;74.50;;;;;;5095824;28;20093;-67
2022/02/24 07:28:28;;;;;;;33.53;13.77;;;6.10;74.90;;;;;;5095663;28;20027;-67
2022/02/24 07:30:54;;;;;;;24.53;12.33;;;6.20;75.50;;;;;;5094146;28;20036;-66
2022/02/24 07:33:20;;;;;;;22.17;10.83;;;6.30;75.50;;;;;;5092418;28;20127;-66
2022/02/24 07:35:46;;;;;;;25.40;9.80;;;6.30;75.60;;;;;;5092566;28;20507;-73
2022/02/24 07:38:11;;;;;;;19.43;10.30;;;6.40;75.50;;;;;;5094120;28;20036;-67
2022/02/24 07:40:38;;;;;;;15.93;8.13;;;6.50;75.70;;;;;;5095386;28;20084;-67
2022/02/24 07:43:03;;;;;;;12.90;5.23;;;6.50;75.90;;;;;;5095439;28;20035;-73
2022/02/24 07:45:29;;;;;;;10.53;4.97;;;6.60;75.50;;;;;;5095184;28;20370;-67
2022/02/24 07:47:55;;;;;;;8.47;4.70;;;6.70;75.00;;;;;;5094624;28;20039;-67
2022/02/24 07:50:20;;;;;;;9.70;4.90;;;6.80;74.70;;;;;;5095188;28;20040;-67
2022/02/24 07:52:46;;;;;;;10.73;4.10;;;6.90;74.40;;;;;;5094819;28;20459;-66
2022/02/24 07:55:14;;;;;;;9.73;3.90;;;7.00;74.00;;;;;;5094531;28;20056;-74
2022/02/24 07:57:41;;;;;;;9.20;4.40;;;7.10;73.10;;;;;;5094741;28;20036;-67
2022/02/24 08:00:13;;;;;;;9.80;4.70;;;7.20;72.80;;;;;;5094745;28;20024;-66
2022/02/24 08:02:39;;;;;;;8.40;4.67;;;7.30;72.50;;;;;;5094719;28;20063;-66
2022/02/24 08:05:05;;;;;;;10.90;4.80;;;7.40;72.00;;;;;;5091800;28;20153;-66
2022/02/24 08:07:31;;;;;;;11.00;5.13;;;7.50;71.40;;;;;;5091892;28;20397;-67
2022/02/24 08:09:57;;;;;;;9.53;5.40;;;7.60;71.30;;;;;;5094332;28;20042;-66
2022/02/24 08:12:42;;;;;;;9.67;5.63;;;7.70;70.70;;;;;;5094765;28;20128;-66
2022/02/24 08:15:13;;;;;;;15.40;6.53;;;7.70;70.50;;;;;;5094780;28;20047;-66
2022/02/24 08:17:39;;;;;;;12.17;5.57;;;7.90;70.10;;;;;;5094482;28;20063;-66
2022/02/24 08:20:07;;;;;;;15.70;6.37;;;7.90;70.10;;;;;;5094582;28;20043;-66
2022/02/24 08:22:38;;;;;;;13.47;6.50;;;8.00;70.20;;;;;;5094466;28;20044;-66
2022/02/24 08:25:06;;;;;;;17.37;6.30;;;8.00;70.10;;;;;;5094345;28;20035;-66
2022/02/24 08:27:34;;;;;;;11.20;5.10;;;8.10;70.00;;;;;;5094301;28;20036;-66
2022/02/24 08:30:02;;;;;;;11.03;4.53;;;8.20;69.70;;;;;;5094338;28;20072;-66
2022/02/24 08:32:28;;;;;;;8.67;3.80;;;8.20;69.10;;;;;;5094338;28;20054;-75
2022/02/24 08:34:55;;;;;;;5.97;3.90;;;8.30;68.70;;;;;;5094284;28;20124;-72
2022/02/24 08:37:20;;;;;;;6.70;4.10;;;8.40;68.50;;;;;;5094485;28;20089;-67
2022/02/24 08:39:46;;;;;;;7.33;4.23;;;8.50;68.10;;;;;;5094599;28;20028;-65
2022/02/24 08:42:12;;;;;;;11.47;4.57;;;8.60;67.40;;;;;;5094216;28;20111;-66
2022/02/24 08:44:39;;;;;;;13.60;4.70;;;8.70;67.40;;;;;;5094079;28;20060;-66
2022/02/24 08:47:06;;;;;;;7.30;4.60;;;8.80;67.40;;;;;;5094155;28;20085;-66
2022/02/24 08:49:32;;;;;;;9.10;4.27;;;8.80;67.10;;;;;;5094086;28;20039;-75
2022/02/24 08:51:57;;;;;;;7.20;4.33;;;8.90;66.80;;;;;;5093540;28;20044;-66
2022/02/24 08:54:23;;;;;;;7.03;4.70;;;8.90;66.60;;;;;;5093789;28;20389;-67
2022/02/24 08:56:49;;;;;;;13.90;4.50;;;9.00;66.70;;;;;;5093876;28;20036;-76
2022/02/24 08:59:14;;;;;;;7.33;4.20;;;9.10;66.90;;;;;;5094196;28;20465;-66
2022/02/24 09:01:41;;;;;;;10.80;4.57;;;9.10;66.40;;;;;;5094134;28;20115;-66
2022/02/24 09:04:06;;;;;;;8.27;4.23;;;9.20;66.50;;;;;;5094034;28;20044;-65
2022/02/24 09:06:32;;;;;;;12.93;4.53;;;9.30;66.30;;;;;;5093458;28;20365;-65
2022/02/24 09:08:58;;;;;;;8.73;4.30;;;9.40;66.00;;;;;;5093601;28;20396;-66
2022/02/24 09:11:24;;;;;;;9.63;4.60;;;9.40;65.90;;;;;;5093736;28;20075;-66
2022/02/24 09:13:50;;;;;;;6.70;4.30;;;9.60;65.80;;;;;;5093671;28;20097;-75
2022/02/24 09:16:16;;;;;;;6.80;4.50;;;9.60;65.50;;;;;;5093675;28;20040;-66
2022/02/24 09:18:42;;;;;;;7.03;4.13;;;9.70;65.60;;;;;;5093613;28;20044;-66
2022/02/24 09:21:08;;;;;;;8.57;4.13;;;9.80;64.90;;;;;;5093431;28;20040;-66
2022/02/24 09:23:34;;;;;;;11.27;4.87;;;9.80;64.60;;;;;;5093663;28;20036;-67
2022/02/24 09:26:00;;;;;;;7.07;3.60;;;;;;;;;;5093484;28;20035;-72
2022/02/24 09:28:27;;;;;;;10.50;4.10;;;;;;;;;;5093556;28;20082;-65
2022/02/24 09:30:54;;;;;;;9.03;3.47;;;;;;;;;;5093130;28;20047;-64
2022/02/24 09:33:20;;;;;;;10.63;3.50;;;;;;;;;;5093301;28;20036;-65
2022/02/24 09:35:46;;;;;;;7.93;3.03;;;;;;;;;;5093118;28;20047;-65
2022/02/24 09:38:14;;;;;;;5.77;3.27;;;9.90;64.30;;;;;;5093255;28;20032;-65
2022/02/24 09:40:41;;;;;;;12.53;3.90;;;;;;;;;;5093190;28;20068;-65
2022/02/24 09:43:07;;;;;;;12.00;3.73;;;10.40;60.50;;;;;;5093099;28;20032;-65
2022/02/24 09:45:32;;;;;;;10.30;4.50;;;10.50;60.90;;;;;;5093260;28;20036;-65
2022/02/24 09:48:02;;;;;;;7.47;3.57;;;10.60;60.60;;;;;;5092832;28;20031;-65
2022/02/24 09:50:29;;;;;;;7.80;3.73;;;10.70;60.60;;;;;;5093011;28;20119;-65
2022/02/24 09:52:56;;;;;;;8.30;4.00;;;;;;;;;;5093091;28;20040;-65
2022/02/24 09:55:22;;;;;;;8.43;3.27;;;;;;;;;;5092914;28;20032;-64
2022/02/24 09:57:48;;;;;;;12.83;4.10;;;;;;;;;;5093337;28;20039;-65
2022/02/24 10:00:14;;;;;;;9.20;3.67;;;;;;;;;;5093330;28;20121;-65
2022/02/24 10:02:40;;;;;;;9.65;4.20;;;;;;;;;;5094113;28;20043;-65
2022/02/24 10:05:07;;;;;;;14.63;4.30;;;;;;;;;;5097049;28;20028;-65
2022/02/24 10:07:37;;;;;;;6.68;3.08;;;;;;;;;;5097430;28;20468;-74
2022/02/24 10:10:21;;;;;;;5.68;2.90;;;;;;;;;;5097164;28;20062;-75
2022/02/24 10:13:00;;;;;;;11.52;3.00;;;;;;;;;;5097012;28;20043;-72
2022/02/24 10:15:27;;;;;;;6.47;2.78;;;;;;;;;;5097170;28;20043;-65
2022/02/24 10:18:11;;;;;;;6.43;2.85;;;;;;;;;;5097043;28;20111;-66
2022/02/24 10:20:37;;;;;;;5.00;2.80;;;;;;;;;;5097288;28;20373;-65
2022/02/24 10:23:04;;;;;;;6.22;3.05;;;;;;;;;;5097035;28;20412;-66
2022/02/24 10:25:37;;;;;;;5.40;3.22;;;;;;;;;;5096894;28;20032;-66
2022/02/24 10:28:05;;;;;;;6.93;3.58;;;;;;;;;;5096648;28;20097;-67
2022/02/24 10:30:31;;;;;;;6.78;3.47;;;;;;;;;;5096651;28;20040;-66
2022/02/24 10:32:57;;;;;;;6.20;3.42;;;;;;;;;;5096823;28;20043;-66
2022/02/24 10:35:23;;;;;;;7.90;3.47;;;;;;;;;;5096601;28;20039;-66
2022/02/24 10:38:00;;;;;;;11.90;3.55;;;;;;;;;;5096783;28;20083;-66
2022/02/24 10:40:27;;;;;;;8.63;3.28;;;;;;;;;;5096455;28;20070;-75
2022/02/24 10:42:53;;;;;;;5.45;3.40;;;;;;;;;;5096469;28;20481;-66
2022/02/24 10:45:24;;;;;;;6.28;2.75;;;;;;;;;;5096856;28;20062;-66
2022/02/24 10:47:57;;;;;;;10.15;3.78;;;;;;;;;;5096498;28;20043;-66
2022/02/24 10:50:43;;;;;;;5.95;2.80;;;;;;;;;;5096293;28;20097;-66
2022/02/24 10:53:09;;;;;;;5.70;2.50;;;;;;;;;;5096364;28;20484;-65
2022/02/24 10:55:53;;;;;;;4.40;2.75;;;;;;;;;;5096517;28;20032;-75
2022/02/24 10:58:20;;;;;;;6.05;2.95;;;;;;;;;;5096644;28;20130;-66
2022/02/24 11:00:46;;;;;;;5.05;2.47;;;;;;;;;;5096131;28;20020;-66
2022/02/24 11:03:12;;;;;;;4.85;2.10;;;;;;;;;;5096241;28;20118;-67
2022/02/24 11:05:40;;;;;;;3.45;1.70;;;;;;;;;;5096129;28;20035;-66
2022/02/24 11:08:07;;;;;;;3.45;1.25;;;;;;;;;;5096142;28;20362;-66
2022/02/24 11:10:35;;;;;;;3.05;1.30;;;10.80;60.70;;;;;;5095803;28;20052;-72
2022/02/24 11:13:01;;;;;;;5.88;1.77;;;13.20;42.80;;;;;;5095218;28;20040;-68
2022/02/24 11:15:26;;;;;;;1.63;1.17;;;13.10;43.80;;;;;;5095570;28;20028;-73
2022/02/24 11:17:53;;;;;;;7.70;2.20;;;13.20;43.50;;;;;;5095770;28;20048;-65
2022/02/24 11:20:21;;;;;;;2.22;1.30;;;13.30;42.60;;;;;;5095530;28;20392;-65
2022/02/24 11:22:48;;;;;;;2.13;1.40;;;13.20;41.70;;;;;;5095864;28;20084;-70
2022/02/24 11:25:16;;;;;;;2.45;1.40;;;13.30;41.70;;;;;;5095827;28;20043;-65
2022/02/24 11:27:51;;;;;;;3.58;1.42;;;13.40;42.00;;;;;;5096018;28;20036;-65
2022/02/24 11:30:21;;;;;;;1.40;0.90;;;13.40;40.20;;;;;;5095688;28;20028;-64
2022/02/24 11:32:48;;;;;;;2.45;1.17;;;13.40;39.70;;;;;;5095709;28;20049;-69
2022/02/24 11:35:13;;;;;;;2.10;1.27;;;13.40;39.30;;;;;;5095784;28;20035;-66
2022/02/24 11:37:45;;;;;;;1.65;1.15;;;13.50;38.90;;;;;;5095428;28;20028;-64
2022/02/24 11:40:27;;;;;;;1.80;1.13;;;13.50;38.80;;;;;;5095467;28;20028;-65
2022/02/24 11:43:05;;;;;;;2.83;1.83;;;13.50;38.60;;;;;;5095426;28;20035;-65
2022/02/24 11:45:49;;;;;;;2.80;2.25;;;13.50;37.90;;;;;;5095200;28;20071;-65
2022/02/24 11:48:28;;;;;;;3.30;2.50;;;13.50;38.10;;;;;;5095431;28;20116;-65
2022/02/24 11:51:02;;;;;;;2.30;1.85;;;13.60;37.80;;;;;;5095077;28;20028;-65
2022/02/24 11:53:30;;;;;;;2.58;2.10;;;13.60;38.00;;;;;;5094920;28;20036;-68
2022/02/24 11:55:56;;;;;;;3.35;2.10;;;13.80;38.40;;;;;;5093636;28;20063;-66
2022/02/24 11:58:33;;;;;;;3.42;2.42;;;13.80;39.10;;;;;;5093934;28;20499;-64
2022/02/24 12:01:21;;;;;;;7.63;3.30;;;13.90;38.70;;;;;;5095097;28;20025;-65
2022/02/24 12:03:47;;;;;;;7.78;2.58;;;13.90;40.00;;;;;;5095264;28;20147;-73
2022/02/24 12:06:19;;;;;;;3.60;2.35;;;14.00;39.70;;;;;;5094934;28;20105;-64
2022/02/24 12:09:19;;;;;;;5.10;2.95;;;14.00;39.00;;;;;;5094226;28;20032;-74
2022/02/24 12:11:53;;;;;;;7.40;3.22;;;14.10;38.30;;;;;;5094876;28;20101;-74
2022/02/24 12:14:24;;;;;;;3.97;3.13;;;14.10;38.40;;;;;;5094969;28;20028;-73
2022/02/24 12:17:04;;;;;;;4.68;3.30;;;14.10;38.50;;;;;;5095001;28;20036;-68
2022/02/24 12:19:51;;;;;;;5.75;3.20;;;14.20;38.70;;;;;;5095161;28;20096;-74
2022/02/24 12:22:18;;;;;;;4.32;3.38;;;14.20;38.60;;;;;;5094661;28;20032;-65
2022/02/24 12:25:02;;;;;;;7.90;3.40;;;14.20;38.10;;;;;;5094256;28;20032;-65
2022/02/24 12:27:43;;;;;;;5.07;3.10;;;14.20;37.70;;;;;;5094462;28;20385;-74
2022/02/24 12:30:09;;;;;;;4.13;3.05;;;14.20;37.50;;;;;;5095038;28;20035;-65
2022/02/24 12:32:56;;;;;;;6.22;4.03;;;14.30;38.20;;;;;;5094369;28;20051;-65
2022/02/24 12:35:24;;;;;;;5.65;3.80;;;14.40;37.40;;;;;;5094577;28;20032;-65
2022/02/24 12:37:51;;;;;;;5.05;3.60;;;14.40;37.90;;;;;;5094371;28;20453;-65
2022/02/24 12:40:26;;;;;;;5.53;3.67;;;14.40;37.10;;;;;;5093668;28;20032;-65
2022/02/24 12:42:52;;;;;;;4.93;3.50;;;14.40;36.80;;;;;;5094202;28;20047;-72
2022/02/24 12:45:19;;;;;;;5.57;3.83;;;14.40;37.40;;;;;;5093917;28;20036;-65
2022/02/24 12:47:52;;;;;;;6.95;3.63;;;14.50;37.70;;;;;;5093614;28;20034;-65
2022/02/24 12:50:23;;;;;;;9.10;3.22;;;14.50;37.00;;;;;;5094339;28;20189;-66
2022/02/24 12:52:49;;;;;;;5.97;4.57;;;14.50;36.60;;;;;;5093767;28;20332;-66
2022/02/24 13:35:51;;;;;;;6.78;4.30;;;14.20;37.60;;;;;;5131555;27;20112;-63